sensor_id;sensor_type;location;lat;lon;timestamp;temperature;humidity
2465;DHT22;1244;54.326;10.074;2024-03-25T00:02:05;6.20;99.90
2465;DHT22;1244;54.326;10.074;2024-03-25T00:04:31;6.20;99.90
2465;DHT22;1244;54.326;10.074;2024-03-25T00:06:56;6.20;99.90
2465;DHT22;1244;54.326;10.074;2024-03-25T00:09:23;6.20;99.90
2465;DHT22;1244;54.326;10.074;2024-03-25T00:11:49;6.10;99.90
2465;DHT22;1244;54.326;10.074;2024-03-25T00:14:20;6.10;99.90
2465;DHT22;1244;54.326;10.074;2024-03-25T00:16:45;6.10;99.90
2465;DHT22;1244;54.326;10.074;2024-03-25T00:19:11;6.20;99.90
2465;DHT22;1244;54.326;10.074;2024-03-25T00:21:37;6.20;99.90
2465;DHT22;1244;54.326;10.074;2024-03-25T00:24:02;6.10;99.90
2465;DHT22;1244;54.326;10.074;2024-03-25T00:26:28;6.20;99.90
2465;DHT22;1244;54.326;10.074;2024-03-25T00:28:53;6.20;99.90
2465;DHT22;1244;54.326;10.074;2024-03-25T00:31:22;6.20;99.90
2465;DHT22;1244;54.326;10.074;2024-03-25T00:33:47;6.20;99.90
2465;DHT22;1244;54.326;10.074;2024-03-25T00:36:13;6.10;99.90
2465;DHT22;1244;54.326;10.074;2024-03-25T00:38:38;6.20;99.90
2465;DHT22;1244;54.326;10.074;2024-03-25T00:41:04;6.10;99.90
2465;DHT22;1244;54.326;10.074;2024-03-25T00:43:29;6.10;99.90
2465;DHT22;1244;54.326;10.074;2024-03-25T00:45:55;6.10;99.90
2465;DHT22;1244;54.326;10.074;2024-03-25T00:48:22;6.00;99.90
2465;DHT22;1244;54.326;10.074;2024-03-25T00:50:48;6.00;99.90
2465;DHT22;1244;54.326;10.074;2024-03-25T00:53:13;6.00;99.90
2465;DHT22;1244;54.326;10.074;2024-03-25T00:55:39;6.00;99.90
2465;DHT22;1244;54.326;10.074;2024-03-25T00:58:05;6.00;99.90
2465;DHT22;1244;54.326;10.074;2024-03-25T01:00:30;6.00;99.90
2465;DHT22;1244;54.326;10.074;2024-03-25T01:02:56;6.00;99.90
2465;DHT22;1244;54.326;10.074;2024-03-25T01:05:22;6.00;99.90
2465;DHT22;1244;54.326;10.074;2024-03-25T01:07:47;6.00;99.90
2465;DHT22;1244;54.326;10.074;2024-03-25T01:10:14;6.00;99.90
2465;DHT22;1244;54.326;10.074;2024-03-25T01:12:39;6.00;99.90
2465;DHT22;1244;54.326;10.074;2024-03-25T01:15:06;5.90;99.90
2465;DHT22;1244;54.326;10.074;2024-03-25T01:17:31;5.90;99.90
2465;DHT22;1244;54.326;10.074;2024-03-25T01:19:56;6.00;99.90
2465;DHT22;1244;54.326;10.074;2024-03-25T01:22:22;5.90;99.90
2465;DHT22;1244;54.326;10.074;2024-03-25T01:24:47;5.90;99.90
2465;DHT22;1244;54.326;10.074;2024-03-25T01:27:13;5.90;99.90
2465;DHT22;1244;54.326;10.074;2024-03-25T01:29:38;5.90;99.90
2465;DHT22;1244;54.326;10.074;2024-03-25T01:32:04;5.90;99.90
2465;DHT22;1244;54.326;10.074;2024-03-25T01:34:30;6.00;99.90
2465;DHT22;1244;54.326;10.074;2024-03-25T01:36:56;6.00;99.90
2465;DHT22;1244;54.326;10.074;2024-03-25T01:39:21;5.90;99.90
2465;DHT22;1244;54.326;10.074;2024-03-25T01:41:47;5.90;99.90
2465;DHT22;1244;54.326;10.074;2024-03-25T01:44:12;5.90;99.90
2465;DHT22;1244;54.326;10.074;2024-03-25T01:46:38;6.00;99.90
2465;DHT22;1244;54.326;10.074;2024-03-25T01:49:04;6.00;99.90
2465;DHT22;1244;54.326;10.074;2024-03-25T01:51:29;5.90;99.90
2465;DHT22;1244;54.326;10.074;2024-03-25T01:53:55;6.00;99.90
2465;DHT22;1244;54.326;10.074;2024-03-25T01:56:21;5.90;99.90
2465;DHT22;1244;54.326;10.074;2024-03-25T01:58:48;6.00;99.90
2465;DHT22;1244;54.326;10.074;2024-03-25T02:01:14;6.00;99.90
2465;DHT22;1244;54.326;10.074;2024-03-25T02:03:43;6.00;99.90
2465;DHT22;1244;54.326;10.074;2024-03-25T02:06:12;6.00;99.90
2465;DHT22;1244;54.326;10.074;2024-03-25T02:08:39;6.00;99.90
2465;DHT22;1244;54.326;10.074;2024-03-25T02:11:05;5.90;99.90
2465;DHT22;1244;54.326;10.074;2024-03-25T02:13:31;5.90;99.90
2465;DHT22;1244;54.326;10.074;2024-03-25T02:15:57;5.90;99.90
2465;DHT22;1244;54.326;10.074;2024-03-25T02:18:22;5.90;99.90
2465;DHT22;1244;54.326;10.074;2024-03-25T02:20:48;6.00;99.90
2465;DHT22;1244;54.326;10.074;2024-03-25T02:23:14;5.90;99.90
2465;DHT22;1244;54.326;10.074;2024-03-25T02:25:40;5.90;99.90
2465;DHT22;1244;54.326;10.074;2024-03-25T02:28:06;5.80;99.90
2465;DHT22;1244;54.326;10.074;2024-03-25T02:30:32;5.80;99.90
2465;DHT22;1244;54.326;10.074;2024-03-25T02:32:58;5.80;99.90
2465;DHT22;1244;54.326;10.074;2024-03-25T02:35:23;5.80;99.90
2465;DHT22;1244;54.326;10.074;2024-03-25T02:37:50;5.80;99.90
2465;DHT22;1244;54.326;10.074;2024-03-25T02:40:16;5.80;99.90
2465;DHT22;1244;54.326;10.074;2024-03-25T02:42:42;5.80;99.90
2465;DHT22;1244;54.326;10.074;2024-03-25T02:45:08;5.80;99.90
2465;DHT22;1244;54.326;10.074;2024-03-25T02:47:33;5.90;99.90
2465;DHT22;1244;54.326;10.074;2024-03-25T02:49:59;5.80;99.90
2465;DHT22;1244;54.326;10.074;2024-03-25T02:52:24;5.80;99.90
2465;DHT22;1244;54.326;10.074;2024-03-25T02:54:50;5.90;99.90
2465;DHT22;1244;54.326;10.074;2024-03-25T02:57:15;5.80;99.90
2465;DHT22;1244;54.326;10.074;2024-03-25T02:59:41;5.80;99.90
2465;DHT22;1244;54.326;10.074;2024-03-25T03:02:06;5.80;99.90
2465;DHT22;1244;54.326;10.074;2024-03-25T03:04:32;5.80;99.90
2465;DHT22;1244;54.326;10.074;2024-03-25T03:06:57;5.80;99.90
2465;DHT22;1244;54.326;10.074;2024-03-25T03:09:22;5.80;99.90
2465;DHT22;1244;54.326;10.074;2024-03-25T03:11:48;5.80;99.90
2465;DHT22;1244;54.326;10.074;2024-03-25T03:14:13;5.80;99.90
2465;DHT22;1244;54.326;10.074;2024-03-25T03:16:39;5.80;99.90
2465;DHT22;1244;54.326;10.074;2024-03-25T03:19:04;5.80;99.90
2465;DHT22;1244;54.326;10.074;2024-03-25T03:21:30;5.80;99.90
2465;DHT22;1244;54.326;10.074;2024-03-25T03:23:55;5.90;99.90
2465;DHT22;1244;54.326;10.074;2024-03-25T03:26:21;5.80;99.90
2465;DHT22;1244;54.326;10.074;2024-03-25T03:28:52;5.80;99.90
2465;DHT22;1244;54.326;10.074;2024-03-25T03:31:17;5.80;99.90
2465;DHT22;1244;54.326;10.074;2024-03-25T03:33:43;5.70;99.90
2465;DHT22;1244;54.326;10.074;2024-03-25T03:36:08;5.70;99.90
2465;DHT22;1244;54.326;10.074;2024-03-25T03:38:34;5.70;99.90
2465;DHT22;1244;54.326;10.074;2024-03-25T03:41:00;5.60;99.90
2465;DHT22;1244;54.326;10.074;2024-03-25T03:43:26;5.60;99.90
2465;DHT22;1244;54.326;10.074;2024-03-25T03:45:51;5.50;99.90
2465;DHT22;1244;54.326;10.074;2024-03-25T03:48:17;5.60;99.90
2465;DHT22;1244;54.326;10.074;2024-03-25T03:50:42;5.50;99.90
2465;DHT22;1244;54.326;10.074;2024-03-25T03:53:08;5.50;99.90
2465;DHT22;1244;54.326;10.074;2024-03-25T03:55:33;5.50;99.90
2465;DHT22;1244;54.326;10.074;2024-03-25T03:57:59;5.50;99.90
2465;DHT22;1244;54.326;10.074;2024-03-25T04:00:24;5.50;99.90
2465;DHT22;1244;54.326;10.074;2024-03-25T04:02:50;5.40;99.90
2465;DHT22;1244;54.326;10.074;2024-03-25T04:05:15;5.50;99.90
2465;DHT22;1244;54.326;10.074;2024-03-25T04:07:40;5.40;99.90
2465;DHT22;1244;54.326;10.074;2024-03-25T04:10:06;5.30;99.90
2465;DHT22;1244;54.326;10.074;2024-03-25T04:12:32;5.40;99.90
2465;DHT22;1244;54.326;10.074;2024-03-25T04:14:57;5.40;99.90
2465;DHT22;1244;54.326;10.074;2024-03-25T04:17:23;5.40;99.90
2465;DHT22;1244;54.326;10.074;2024-03-25T04:19:49;5.40;99.90
2465;DHT22;1244;54.326;10.074;2024-03-25T04:22:14;5.40;99.90
2465;DHT22;1244;54.326;10.074;2024-03-25T04:24:40;5.40;99.90
2465;DHT22;1244;54.326;10.074;2024-03-25T04:27:05;5.40;99.90
2465;DHT22;1244;54.326;10.074;2024-03-25T04:29:31;5.40;99.90
2465;DHT22;1244;54.326;10.074;2024-03-25T04:31:56;5.30;99.90
2465;DHT22;1244;54.326;10.074;2024-03-25T04:34:22;5.30;99.90
2465;DHT22;1244;54.326;10.074;2024-03-25T04:36:48;5.30;99.90
2465;DHT22;1244;54.326;10.074;2024-03-25T04:39:14;5.30;99.90
2465;DHT22;1244;54.326;10.074;2024-03-25T04:41:40;5.30;99.90
2465;DHT22;1244;54.326;10.074;2024-03-25T04:44:06;5.20;99.90
2465;DHT22;1244;54.326;10.074;2024-03-25T04:46:31;5.20;99.90
2465;DHT22;1244;54.326;10.074;2024-03-25T04:48:56;5.20;99.90
2465;DHT22;1244;54.326;10.074;2024-03-25T04:51:22;5.10;99.90
2465;DHT22;1244;54.326;10.074;2024-03-25T04:53:48;5.10;99.90
2465;DHT22;1244;54.326;10.074;2024-03-25T04:56:13;5.00;99.90
2465;DHT22;1244;54.326;10.074;2024-03-25T04:58:38;4.80;99.90
2465;DHT22;1244;54.326;10.074;2024-03-25T05:01:04;4.70;99.90
2465;DHT22;1244;54.326;10.074;2024-03-25T05:03:29;4.70;99.90
2465;DHT22;1244;54.326;10.074;2024-03-25T05:05:55;4.60;99.90
2465;DHT22;1244;54.326;10.074;2024-03-25T05:08:21;4.50;99.90
2465;DHT22;1244;54.326;10.074;2024-03-25T05:10:47;4.40;99.90
2465;DHT22;1244;54.326;10.074;2024-03-25T05:13:12;4.40;99.90
2465;DHT22;1244;54.326;10.074;2024-03-25T05:15:38;4.30;99.90
2465;DHT22;1244;54.326;10.074;2024-03-25T05:18:03;4.30;99.90
2465;DHT22;1244;54.326;10.074;2024-03-25T05:20:29;4.20;99.90
2465;DHT22;1244;54.326;10.074;2024-03-25T05:22:54;4.10;99.90
2465;DHT22;1244;54.326;10.074;2024-03-25T05:25:20;4.30;99.90
2465;DHT22;1244;54.326;10.074;2024-03-25T05:27:49;4.30;99.90
2465;DHT22;1244;54.326;10.074;2024-03-25T05:30:15;4.50;99.90
2465;DHT22;1244;54.326;10.074;2024-03-25T05:32:40;4.50;99.90
2465;DHT22;1244;54.326;10.074;2024-03-25T05:35:06;4.60;99.90
2465;DHT22;1244;54.326;10.074;2024-03-25T05:37:32;4.70;99.90
2465;DHT22;1244;54.326;10.074;2024-03-25T05:39:59;4.70;99.90
2465;DHT22;1244;54.326;10.074;2024-03-25T05:42:24;4.80;99.90
2465;DHT22;1244;54.326;10.074;2024-03-25T05:44:50;4.80;99.90
2465;DHT22;1244;54.326;10.074;2024-03-25T05:47:15;4.80;99.90
2465;DHT22;1244;54.326;10.074;2024-03-25T05:49:41;4.80;99.90
2465;DHT22;1244;54.326;10.074;2024-03-25T05:52:06;4.90;99.90
2465;DHT22;1244;54.326;10.074;2024-03-25T05:54:32;4.90;99.90
2465;DHT22;1244;54.326;10.074;2024-03-25T05:56:57;5.00;99.90
2465;DHT22;1244;54.326;10.074;2024-03-25T05:59:23;5.10;99.90
2465;DHT22;1244;54.326;10.074;2024-03-25T06:01:48;5.10;99.90
2465;DHT22;1244;54.326;10.074;2024-03-25T06:04:14;5.20;99.90
2465;DHT22;1244;54.326;10.074;2024-03-25T06:06:39;5.30;99.90
2465;DHT22;1244;54.326;10.074;2024-03-25T06:09:05;5.40;99.90
2465;DHT22;1244;54.326;10.074;2024-03-25T06:11:30;5.50;99.90
2465;DHT22;1244;54.326;10.074;2024-03-25T06:13:56;5.50;99.90
2465;DHT22;1244;54.326;10.074;2024-03-25T06:16:22;5.70;99.90
2465;DHT22;1244;54.326;10.074;2024-03-25T06:18:47;5.90;99.90
2465;DHT22;1244;54.326;10.074;2024-03-25T06:21:12;5.90;99.90
2465;DHT22;1244;54.326;10.074;2024-03-25T06:23:38;5.90;99.90
2465;DHT22;1244;54.326;10.074;2024-03-25T06:26:03;5.70;99.90
2465;DHT22;1244;54.326;10.074;2024-03-25T06:28:29;5.70;99.90
2465;DHT22;1244;54.326;10.074;2024-03-25T06:30:54;5.80;99.90
2465;DHT22;1244;54.326;10.074;2024-03-25T06:33:39;5.80;99.90
2465;DHT22;1244;54.326;10.074;2024-03-25T06:36:23;5.80;99.90
2465;DHT22;1244;54.326;10.074;2024-03-25T06:38:48;5.70;99.90
2465;DHT22;1244;54.326;10.074;2024-03-25T06:41:14;5.80;99.90
2465;DHT22;1244;54.326;10.074;2024-03-25T06:43:39;5.90;99.90
2465;DHT22;1244;54.326;10.074;2024-03-25T06:46:05;6.00;99.90
2465;DHT22;1244;54.326;10.074;2024-03-25T06:48:31;5.90;99.90
2465;DHT22;1244;54.326;10.074;2024-03-25T06:50:57;6.00;99.90
2465;DHT22;1244;54.326;10.074;2024-03-25T06:53:23;6.00;99.90
2465;DHT22;1244;54.326;10.074;2024-03-25T06:55:55;6.00;99.90
2465;DHT22;1244;54.326;10.074;2024-03-25T06:58:21;6.20;99.90
2465;DHT22;1244;54.326;10.074;2024-03-25T07:00:47;6.40;99.90
2465;DHT22;1244;54.326;10.074;2024-03-25T07:03:16;6.40;99.90
2465;DHT22;1244;54.326;10.074;2024-03-25T07:05:44;6.30;99.90
2465;DHT22;1244;54.326;10.074;2024-03-25T07:08:09;6.20;99.90
2465;DHT22;1244;54.326;10.074;2024-03-25T07:10:35;6.20;99.90
2465;DHT22;1244;54.326;10.074;2024-03-25T07:13:00;6.20;99.90
2465;DHT22;1244;54.326;10.074;2024-03-25T07:15:25;6.20;99.90
2465;DHT22;1244;54.326;10.074;2024-03-25T07:17:51;6.20;99.90
2465;DHT22;1244;54.326;10.074;2024-03-25T07:20:16;6.20;99.90
2465;DHT22;1244;54.326;10.074;2024-03-25T07:22:42;6.10;99.90
2465;DHT22;1244;54.326;10.074;2024-03-25T07:25:07;6.10;99.90
2465;DHT22;1244;54.326;10.074;2024-03-25T07:27:34;6.20;99.90
2465;DHT22;1244;54.326;10.074;2024-03-25T07:30:00;6.30;99.90
2465;DHT22;1244;54.326;10.074;2024-03-25T07:32:25;6.30;99.90
2465;DHT22;1244;54.326;10.074;2024-03-25T07:34:51;6.30;99.90
2465;DHT22;1244;54.326;10.074;2024-03-25T07:37:16;6.30;99.90
2465;DHT22;1244;54.326;10.074;2024-03-25T07:39:42;6.30;99.90
2465;DHT22;1244;54.326;10.074;2024-03-25T07:42:08;6.30;99.90
2465;DHT22;1244;54.326;10.074;2024-03-25T07:44:33;6.30;99.90
2465;DHT22;1244;54.326;10.074;2024-03-25T07:46:58;6.40;99.90
2465;DHT22;1244;54.326;10.074;2024-03-25T07:49:24;6.50;99.90
2465;DHT22;1244;54.326;10.074;2024-03-25T07:51:49;6.90;99.90
2465;DHT22;1244;54.326;10.074;2024-03-25T07:54:15;7.00;99.90
2465;DHT22;1244;54.326;10.074;2024-03-25T07:56:44;7.10;99.90
2465;DHT22;1244;54.326;10.074;2024-03-25T07:59:09;6.90;99.90
2465;DHT22;1244;54.326;10.074;2024-03-25T08:01:34;7.20;99.90
2465;DHT22;1244;54.326;10.074;2024-03-25T08:04:00;7.30;99.90
2465;DHT22;1244;54.326;10.074;2024-03-25T08:06:27;7.50;99.90
2465;DHT22;1244;54.326;10.074;2024-03-25T08:08:52;7.50;99.90
2465;DHT22;1244;54.326;10.074;2024-03-25T08:11:18;7.30;99.90
2465;DHT22;1244;54.326;10.074;2024-03-25T08:13:43;7.50;99.90
2465;DHT22;1244;54.326;10.074;2024-03-25T08:16:09;7.60;99.90
2465;DHT22;1244;54.326;10.074;2024-03-25T08:18:34;7.80;99.90
2465;DHT22;1244;54.326;10.074;2024-03-25T08:21:00;8.00;99.90
2465;DHT22;1244;54.326;10.074;2024-03-25T08:23:25;7.80;99.90
2465;DHT22;1244;54.326;10.074;2024-03-25T08:25:51;7.90;99.90
2465;DHT22;1244;54.326;10.074;2024-03-25T08:28:16;8.00;99.90
2465;DHT22;1244;54.326;10.074;2024-03-25T08:30:42;7.80;99.90
2465;DHT22;1244;54.326;10.074;2024-03-25T08:33:07;8.20;99.90
2465;DHT22;1244;54.326;10.074;2024-03-25T08:35:33;8.20;99.90
2465;DHT22;1244;54.326;10.074;2024-03-25T08:37:58;8.10;99.90
2465;DHT22;1244;54.326;10.074;2024-03-25T08:40:24;7.80;99.90
2465;DHT22;1244;54.326;10.074;2024-03-25T08:42:49;7.70;99.90
2465;DHT22;1244;54.326;10.074;2024-03-25T08:45:15;7.40;99.90
2465;DHT22;1244;54.326;10.074;2024-03-25T08:47:40;7.60;99.90
2465;DHT22;1244;54.326;10.074;2024-03-25T08:50:07;7.80;99.90
2465;DHT22;1244;54.326;10.074;2024-03-25T08:52:33;8.00;99.90
2465;DHT22;1244;54.326;10.074;2024-03-25T08:54:58;8.20;99.90
2465;DHT22;1244;54.326;10.074;2024-03-25T08:57:24;8.10;99.90
2465;DHT22;1244;54.326;10.074;2024-03-25T08:59:49;8.00;99.90
2465;DHT22;1244;54.326;10.074;2024-03-25T09:02:15;8.40;99.90
2465;DHT22;1244;54.326;10.074;2024-03-25T09:04:40;8.80;99.90
2465;DHT22;1244;54.326;10.074;2024-03-25T09:07:06;9.20;99.90
2465;DHT22;1244;54.326;10.074;2024-03-25T09:09:31;8.80;99.90
2465;DHT22;1244;54.326;10.074;2024-03-25T09:12:15;9.10;99.90
2465;DHT22;1244;54.326;10.074;2024-03-25T09:14:41;8.60;99.90
2465;DHT22;1244;54.326;10.074;2024-03-25T09:17:06;8.60;99.90
2465;DHT22;1244;54.326;10.074;2024-03-25T09:19:32;8.70;99.90
2465;DHT22;1244;54.326;10.074;2024-03-25T09:21:57;9.40;99.90
2465;DHT22;1244;54.326;10.074;2024-03-25T09:24:22;9.00;99.90
2465;DHT22;1244;54.326;10.074;2024-03-25T09:26:51;8.90;99.90
2465;DHT22;1244;54.326;10.074;2024-03-25T09:29:16;9.00;99.90
2465;DHT22;1244;54.326;10.074;2024-03-25T09:31:42;8.60;99.90
2465;DHT22;1244;54.326;10.074;2024-03-25T09:34:07;8.30;99.90
2465;DHT22;1244;54.326;10.074;2024-03-25T09:36:33;8.40;99.90
2465;DHT22;1244;54.326;10.074;2024-03-25T09:38:58;8.60;99.90
2465;DHT22;1244;54.326;10.074;2024-03-25T09:41:24;8.40;99.90
2465;DHT22;1244;54.326;10.074;2024-03-25T09:43:53;8.60;99.90
2465;DHT22;1244;54.326;10.074;2024-03-25T09:46:20;8.90;99.90
2465;DHT22;1244;54.326;10.074;2024-03-25T09:48:45;9.00;99.90
2465;DHT22;1244;54.326;10.074;2024-03-25T09:51:11;9.80;99.90
2465;DHT22;1244;54.326;10.074;2024-03-25T09:53:37;10.00;99.90
2465;DHT22;1244;54.326;10.074;2024-03-25T09:56:02;10.70;99.90
2465;DHT22;1244;54.326;10.074;2024-03-25T09:58:28;11.90;99.90
2465;DHT22;1244;54.326;10.074;2024-03-25T10:00:54;12.10;99.90
2465;DHT22;1244;54.326;10.074;2024-03-25T10:03:20;11.80;99.90
2465;DHT22;1244;54.326;10.074;2024-03-25T10:05:46;10.70;99.90
2465;DHT22;1244;54.326;10.074;2024-03-25T10:08:11;10.20;99.90
2465;DHT22;1244;54.326;10.074;2024-03-25T10:10:37;8.90;99.90
2465;DHT22;1244;54.326;10.074;2024-03-25T10:13:05;8.30;99.90
2465;DHT22;1244;54.326;10.074;2024-03-25T10:15:31;7.80;99.90
2465;DHT22;1244;54.326;10.074;2024-03-25T10:17:57;7.80;99.90
2465;DHT22;1244;54.326;10.074;2024-03-25T10:20:22;8.10;99.90
2465;DHT22;1244;54.326;10.074;2024-03-25T10:22:48;9.50;99.90
2465;DHT22;1244;54.326;10.074;2024-03-25T10:27:52;9.60;99.90
2465;DHT22;1244;54.326;10.074;2024-03-25T10:30:18;9.10;99.90
2465;DHT22;1244;54.326;10.074;2024-03-25T10:32:44;8.90;99.90
2465;DHT22;1244;54.326;10.074;2024-03-25T10:35:09;8.80;99.90
2465;DHT22;1244;54.326;10.074;2024-03-25T10:37:35;8.70;99.90
2465;DHT22;1244;54.326;10.074;2024-03-25T10:40:00;8.70;99.90
2465;DHT22;1244;54.326;10.074;2024-03-25T10:42:26;9.20;99.90
2465;DHT22;1244;54.326;10.074;2024-03-25T10:44:52;9.50;99.90
2465;DHT22;1244;54.326;10.074;2024-03-25T10:47:21;9.80;99.90
2465;DHT22;1244;54.326;10.074;2024-03-25T10:49:50;9.80;99.90
2465;DHT22;1244;54.326;10.074;2024-03-25T10:52:16;9.50;99.90
2465;DHT22;1244;54.326;10.074;2024-03-25T10:54:42;9.70;99.90
2465;DHT22;1244;54.326;10.074;2024-03-25T10:57:08;9.90;99.90
2465;DHT22;1244;54.326;10.074;2024-03-25T10:59:34;10.30;99.90
2465;DHT22;1244;54.326;10.074;2024-03-25T11:02:03;10.10;99.90
2465;DHT22;1244;54.326;10.074;2024-03-25T11:04:28;10.20;99.90
2465;DHT22;1244;54.326;10.074;2024-03-25T11:06:56;10.20;99.90
2465;DHT22;1244;54.326;10.074;2024-03-25T11:09:31;9.90;99.90
2465;DHT22;1244;54.326;10.074;2024-03-25T11:11:58;9.90;99.90
2465;DHT22;1244;54.326;10.074;2024-03-25T11:14:26;10.50;99.90
2465;DHT22;1244;54.326;10.074;2024-03-25T11:16:53;10.80;99.90
2465;DHT22;1244;54.326;10.074;2024-03-25T11:19:19;11.20;99.90
2465;DHT22;1244;54.326;10.074;2024-03-25T11:21:46;12.10;99.90
2465;DHT22;1244;54.326;10.074;2024-03-25T11:24:12;11.70;99.90
2465;DHT22;1244;54.326;10.074;2024-03-25T11:26:41;10.50;99.90
2465;DHT22;1244;54.326;10.074;2024-03-25T11:29:07;9.80;99.90
2465;DHT22;1244;54.326;10.074;2024-03-25T11:31:32;9.80;99.90
2465;DHT22;1244;54.326;10.074;2024-03-25T11:34:03;9.70;99.90
2465;DHT22;1244;54.326;10.074;2024-03-25T11:36:29;10.80;99.90
2465;DHT22;1244;54.326;10.074;2024-03-25T11:39:02;11.60;99.90
2465;DHT22;1244;54.326;10.074;2024-03-25T11:41:41;12.20;99.90
2465;DHT22;1244;54.326;10.074;2024-03-25T11:44:10;13.50;99.90
2465;DHT22;1244;54.326;10.074;2024-03-25T11:46:36;14.70;99.90
2465;DHT22;1244;54.326;10.074;2024-03-25T11:49:04;13.50;99.90
2465;DHT22;1244;54.326;10.074;2024-03-25T11:51:30;12.00;99.90
2465;DHT22;1244;54.326;10.074;2024-03-25T11:53:56;11.60;99.90
2465;DHT22;1244;54.326;10.074;2024-03-25T11:56:23;11.40;99.90
2465;DHT22;1244;54.326;10.074;2024-03-25T11:58:49;11.30;99.90
2465;DHT22;1244;54.326;10.074;2024-03-25T12:01:15;11.40;99.90
2465;DHT22;1244;54.326;10.074;2024-03-25T12:03:40;11.30;99.90
2465;DHT22;1244;54.326;10.074;2024-03-25T12:06:07;11.20;99.90
2465;DHT22;1244;54.326;10.074;2024-03-25T12:08:32;10.80;99.90
2465;DHT22;1244;54.326;10.074;2024-03-25T12:11:01;10.60;99.90
2465;DHT22;1244;54.326;10.074;2024-03-25T12:13:45;10.90;99.90
2465;DHT22;1244;54.326;10.074;2024-03-25T12:16:10;10.40;99.90
2465;DHT22;1244;54.326;10.074;2024-03-25T12:18:36;10.10;99.90
2465;DHT22;1244;54.326;10.074;2024-03-25T12:21:04;10.10;99.90
2465;DHT22;1244;54.326;10.074;2024-03-25T12:23:30;10.20;99.90
2465;DHT22;1244;54.326;10.074;2024-03-25T12:25:55;11.40;99.90
2465;DHT22;1244;54.326;10.074;2024-03-25T12:28:21;11.90;99.90
2465;DHT22;1244;54.326;10.074;2024-03-25T12:30:51;12.10;99.90
2465;DHT22;1244;54.326;10.074;2024-03-25T12:33:17;13.90;99.90
2465;DHT22;1244;54.326;10.074;2024-03-25T12:35:45;14.60;99.90
2465;DHT22;1244;54.326;10.074;2024-03-25T12:38:10;15.90;99.90
2465;DHT22;1244;54.326;10.074;2024-03-25T12:40:46;15.10;99.90
2465;DHT22;1244;54.326;10.074;2024-03-25T12:43:14;13.50;99.90
2465;DHT22;1244;54.326;10.074;2024-03-25T12:45:40;12.60;99.90
2465;DHT22;1244;54.326;10.074;2024-03-25T12:48:05;11.90;99.90
2465;DHT22;1244;54.326;10.074;2024-03-25T12:50:31;11.70;99.90
2465;DHT22;1244;54.326;10.074;2024-03-25T12:52:56;11.40;99.90
2465;DHT22;1244;54.326;10.074;2024-03-25T12:55:22;10.90;99.90
2465;DHT22;1244;54.326;10.074;2024-03-25T12:57:47;10.60;99.90
2465;DHT22;1244;54.326;10.074;2024-03-25T13:00:13;10.30;99.90
2465;DHT22;1244;54.326;10.074;2024-03-25T13:02:38;10.10;99.90
2465;DHT22;1244;54.326;10.074;2024-03-25T13:05:04;10.00;99.90
2465;DHT22;1244;54.326;10.074;2024-03-25T13:07:29;10.10;99.90
2465;DHT22;1244;54.326;10.074;2024-03-25T13:09:55;10.10;99.90
2465;DHT22;1244;54.326;10.074;2024-03-25T13:12:20;10.30;99.90
2465;DHT22;1244;54.326;10.074;2024-03-25T13:14:46;11.40;99.90
2465;DHT22;1244;54.326;10.074;2024-03-25T13:17:11;12.50;99.90
2465;DHT22;1244;54.326;10.074;2024-03-25T13:19:36;13.60;99.90
2465;DHT22;1244;54.326;10.074;2024-03-25T13:22:02;15.20;99.90
2465;DHT22;1244;54.326;10.074;2024-03-25T13:24:27;16.20;99.90
2465;DHT22;1244;54.326;10.074;2024-03-25T13:26:53;17.10;99.90
2465;DHT22;1244;54.326;10.074;2024-03-25T13:29:18;16.50;99.90
2465;DHT22;1244;54.326;10.074;2024-03-25T13:31:44;15.30;99.90
2465;DHT22;1244;54.326;10.074;2024-03-25T13:34:09;15.00;99.90
2465;DHT22;1244;54.326;10.074;2024-03-25T13:36:35;15.30;99.90
2465;DHT22;1244;54.326;10.074;2024-03-25T13:39:00;14.30;99.90
2465;DHT22;1244;54.326;10.074;2024-03-25T13:41:26;12.70;99.90
2465;DHT22;1244;54.326;10.074;2024-03-25T13:43:52;12.00;99.90
2465;DHT22;1244;54.326;10.074;2024-03-25T13:46:17;11.80;99.90
2465;DHT22;1244;54.326;10.074;2024-03-25T13:48:43;11.40;99.90
2465;DHT22;1244;54.326;10.074;2024-03-25T13:51:08;11.10;99.90
2465;DHT22;1244;54.326;10.074;2024-03-25T13:53:34;11.10;99.90
2465;DHT22;1244;54.326;10.074;2024-03-25T13:55:59;10.90;99.90
2465;DHT22;1244;54.326;10.074;2024-03-25T13:58:27;10.90;99.90
2465;DHT22;1244;54.326;10.074;2024-03-25T14:00:53;11.00;99.90
2465;DHT22;1244;54.326;10.074;2024-03-25T14:03:19;11.20;99.90
2465;DHT22;1244;54.326;10.074;2024-03-25T14:05:45;13.60;99.90
2465;DHT22;1244;54.326;10.074;2024-03-25T14:08:11;14.80;99.90
2465;DHT22;1244;54.326;10.074;2024-03-25T14:10:36;13.60;99.90
2465;DHT22;1244;54.326;10.074;2024-03-25T14:13:02;13.90;99.90
2465;DHT22;1244;54.326;10.074;2024-03-25T14:15:31;14.00;99.90
2465;DHT22;1244;54.326;10.074;2024-03-25T14:17:57;14.20;99.90
2465;DHT22;1244;54.326;10.074;2024-03-25T14:20:22;14.00;99.90
2465;DHT22;1244;54.326;10.074;2024-03-25T14:22:48;13.10;99.90
2465;DHT22;1244;54.326;10.074;2024-03-25T14:25:13;13.70;99.90
2465;DHT22;1244;54.326;10.074;2024-03-25T14:27:40;14.20;99.90
2465;DHT22;1244;54.326;10.074;2024-03-25T14:30:06;15.00;99.90
2465;DHT22;1244;54.326;10.074;2024-03-25T14:32:32;14.60;99.90
2465;DHT22;1244;54.326;10.074;2024-03-25T14:34:57;14.40;99.90
2465;DHT22;1244;54.326;10.074;2024-03-25T14:37:24;13.60;99.90
2465;DHT22;1244;54.326;10.074;2024-03-25T14:39:49;13.10;99.90
2465;DHT22;1244;54.326;10.074;2024-03-25T14:42:15;12.80;99.90
2465;DHT22;1244;54.326;10.074;2024-03-25T14:44:40;13.60;99.90
2465;DHT22;1244;54.326;10.074;2024-03-25T14:47:05;13.40;99.90
2465;DHT22;1244;54.326;10.074;2024-03-25T14:49:31;13.30;99.90
2465;DHT22;1244;54.326;10.074;2024-03-25T14:51:56;12.60;99.90
2465;DHT22;1244;54.326;10.074;2024-03-25T14:54:22;12.00;99.90
2465;DHT22;1244;54.326;10.074;2024-03-25T14:56:47;11.50;99.90
2465;DHT22;1244;54.326;10.074;2024-03-25T14:59:13;11.60;99.90
2465;DHT22;1244;54.326;10.074;2024-03-25T15:01:39;11.50;99.90
2465;DHT22;1244;54.326;10.074;2024-03-25T15:04:04;10.90;99.90
2465;DHT22;1244;54.326;10.074;2024-03-25T15:06:30;10.80;99.90
2465;DHT22;1244;54.326;10.074;2024-03-25T15:08:56;10.70;99.90
2465;DHT22;1244;54.326;10.074;2024-03-25T15:11:21;10.50;99.90
2465;DHT22;1244;54.326;10.074;2024-03-25T15:13:47;10.30;99.90
2465;DHT22;1244;54.326;10.074;2024-03-25T15:16:12;10.10;99.90
2465;DHT22;1244;54.326;10.074;2024-03-25T15:18:38;10.10;99.90
2465;DHT22;1244;54.326;10.074;2024-03-25T15:21:04;10.30;99.90
2465;DHT22;1244;54.326;10.074;2024-03-25T15:23:30;10.50;99.90
2465;DHT22;1244;54.326;10.074;2024-03-25T15:25:56;10.30;99.90
2465;DHT22;1244;54.326;10.074;2024-03-25T15:28:21;10.10;99.90
2465;DHT22;1244;54.326;10.074;2024-03-25T15:30:47;10.20;99.90
2465;DHT22;1244;54.326;10.074;2024-03-25T15:33:13;9.70;99.90
2465;DHT22;1244;54.326;10.074;2024-03-25T15:35:39;9.70;99.90
2465;DHT22;1244;54.326;10.074;2024-03-25T15:38:04;9.50;99.90
2465;DHT22;1244;54.326;10.074;2024-03-25T15:40:30;9.30;99.90
2465;DHT22;1244;54.326;10.074;2024-03-25T15:42:55;9.30;99.90
2465;DHT22;1244;54.326;10.074;2024-03-25T15:45:21;9.20;99.90
2465;DHT22;1244;54.326;10.074;2024-03-25T15:47:49;9.50;99.90
2465;DHT22;1244;54.326;10.074;2024-03-25T15:50:14;9.50;99.90
2465;DHT22;1244;54.326;10.074;2024-03-25T15:52:39;9.60;99.90